createdAt,value
2022-11-09T00:00:36.359Z,73.55
2022-11-09T00:03:03.844Z,73.14
2022-11-09T00:05:31.243Z,71.92
2022-11-09T00:07:58.444Z,73.14
2022-11-09T00:10:25.923Z,72.82
2022-11-09T00:12:53.103Z,74.27
2022-11-09T00:15:20.315Z,72.78
2022-11-09T00:17:47.789Z,74.80
2022-11-09T00:20:15.027Z,74.05
2022-11-09T00:22:42.235Z,73.44
2022-11-09T00:25:09.825Z,73.44
2022-11-09T00:27:37.028Z,74.59
2022-11-09T00:30:04.476Z,75.41
2022-11-09T00:32:31.968Z,74.01
2022-11-09T00:34:59.176Z,74.16
2022-11-09T00:37:29.667Z,73.91
2022-11-09T00:39:57.154Z,72.61
2022-11-09T00:42:24.430Z,73.29
2022-11-09T00:44:51.671Z,73.51
2022-11-09T00:47:19.247Z,76.30
2022-11-09T00:49:47.184Z,74.62
2022-11-09T00:52:14.569Z,75.47
2022-11-09T00:54:42.120Z,75.57
2022-11-09T00:57:09.324Z,73.84
2022-11-09T00:59:36.643Z,75.11
2022-11-09T01:02:04.171Z,74.82
2022-11-09T01:04:31.478Z,72.37
2022-11-09T01:07:00.127Z,74.16
2022-11-09T01:09:27.672Z,74.99
2022-11-09T01:11:54.943Z,73.12
2022-11-09T01:14:22.478Z,73.65
2022-11-09T01:16:50.031Z,73.04
2022-11-09T01:19:17.352Z,73.34
2022-11-09T01:21:45.526Z,74.77
2022-11-09T01:24:13.043Z,73.80
2022-11-09T01:26:40.258Z,73.60
2022-11-09T01:29:07.475Z,73.30
2022-11-09T01:31:34.996Z,73.71
2022-11-09T01:34:02.428Z,73.92
2022-11-09T01:36:30.061Z,72.68
2022-11-09T01:39:00.390Z,71.50
2022-11-09T01:41:28.352Z,73.80
2022-11-09T01:44:06.835Z,73.29
2022-11-09T01:46:42.733Z,72.75
2022-11-09T01:49:14.978Z,73.10
2022-11-09T01:51:44.053Z,76.09
2022-11-09T01:54:13.373Z,74.59
2022-11-09T01:56:40.626Z,74.61
2022-11-09T01:59:11.310Z,77.46
2022-11-09T02:01:38.620Z,75.16
2022-11-09T02:04:21.028Z,74.13
2022-11-09T02:06:48.428Z,75.47
2022-11-09T02:09:18.907Z,76.92
2022-11-09T02:11:46.128Z,75.80
2022-11-09T02:14:13.515Z,74.11
2022-11-09T02:16:41.082Z,77.61
2022-11-09T02:19:08.341Z,77.37
2022-11-09T02:21:35.527Z,74.60
2022-11-09T02:24:03.034Z,74.15
2022-11-09T02:26:33.080Z,74.50
2022-11-09T02:29:01.026Z,74.16
2022-11-09T02:31:30.825Z,80.79
2022-11-09T02:34:03.343Z,76.17
2022-11-09T02:36:32.351Z,77.14
2022-11-09T02:39:00.619Z,75.22
2022-11-09T02:41:28.103Z,75.15
2022-11-09T02:43:57.118Z,74.45
2022-11-09T02:46:25.052Z,74.25
2022-11-09T02:48:52.708Z,74.06
2022-11-09T02:51:20.229Z,75.13
2022-11-09T02:53:48.655Z,76.49
2022-11-09T02:56:15.874Z,77.25
2022-11-09T02:58:43.374Z,77.09
2022-11-09T03:01:10.938Z,76.38
2022-11-09T03:03:38.195Z,76.53
2022-11-09T03:06:05.675Z,77.76
2022-11-09T03:08:33.178Z,80.44
2022-11-09T03:11:00.834Z,77.45
2022-11-09T03:13:28.807Z,79.37
2022-11-09T03:15:56.356Z,76.32
2022-11-09T03:18:23.551Z,75.24
2022-11-09T03:20:51.077Z,74.71
2022-11-09T03:23:18.624Z,75.29
2022-11-09T03:25:46.585Z,74.91
2022-11-09T03:28:14.776Z,75.49
2022-11-09T03:30:42.146Z,74.04
2022-11-09T03:33:10.358Z,74.09
2022-11-09T03:35:38.067Z,73.87
2022-11-09T03:38:05.503Z,73.20
2022-11-09T03:40:32.710Z,75.01
2022-11-09T03:43:00.193Z,75.27
2022-11-09T03:45:30.093Z,75.50
2022-11-09T03:48:00.140Z,74.21
2022-11-09T03:50:28.424Z,74.17
2022-11-09T03:52:55.869Z,74.06
2022-11-09T03:55:23.051Z,74.96
2022-11-09T03:57:50.570Z,74.59
2022-11-09T04:00:18.835Z,75.79
2022-11-09T04:02:46.500Z,78.97
2022-11-09T04:05:14.032Z,76.68
2022-11-09T04:07:41.225Z,77.98
2022-11-09T04:10:08.698Z,78.45
2022-11-09T04:12:35.924Z,75.97
2022-11-09T04:15:03.165Z,74.38
2022-11-09T04:17:30.803Z,75.03
2022-11-09T04:19:58.014Z,79.31
2022-11-09T04:22:25.222Z,77.18
2022-11-09T04:24:52.679Z,76.14
2022-11-09T04:27:19.871Z,76.68
2022-11-09T04:29:47.056Z,76.49
2022-11-09T04:32:14.569Z,76.50
2022-11-09T04:34:41.747Z,76.34
2022-11-09T04:37:09.330Z,75.50
2022-11-09T04:39:36.816Z,77.63
2022-11-09T04:42:04.028Z,74.79
2022-11-09T04:44:31.290Z,74.12
2022-11-09T04:46:58.761Z,73.64
2022-11-09T04:49:25.987Z,73.26
2022-11-09T04:51:53.187Z,72.20
2022-11-09T04:54:20.707Z,72.65
2022-11-09T04:56:47.922Z,72.45
2022-11-09T04:59:15.166Z,73.54
2022-11-09T05:01:42.715Z,74.05
2022-11-09T05:04:09.933Z,75.04
2022-11-09T05:06:37.205Z,74.12
2022-11-09T05:09:05.962Z,76.01
2022-11-09T05:11:33.752Z,76.04
2022-11-09T05:14:01.285Z,76.70
2022-11-09T05:16:29.058Z,77.38
2022-11-09T05:18:56.234Z,77.60
2022-11-09T05:21:23.415Z,77.11
2022-11-09T05:23:59.793Z,79.30
2022-11-09T05:26:33.638Z,78.59
2022-11-09T05:29:02.649Z,79.13
2022-11-09T05:31:30.343Z,78.55
2022-11-09T05:33:57.722Z,76.92
2022-11-09T05:36:25.483Z,77.96
2022-11-09T05:38:52.704Z,76.77
2022-11-09T05:41:20.221Z,78.31
2022-11-09T05:43:47.698Z,78.77
2022-11-09T05:46:15.135Z,76.89
2022-11-09T05:48:42.824Z,78.60
2022-11-09T05:51:11.378Z,76.82
2022-11-09T05:53:42.375Z,76.64
2022-11-09T05:56:14.374Z,76.60
2022-11-09T05:58:42.129Z,76.45
2022-11-09T06:01:10.520Z,77.97
2022-11-09T06:03:38.151Z,77.57
2022-11-09T06:06:08.641Z,79.26
2022-11-09T06:08:36.401Z,76.87
2022-11-09T06:11:08.042Z,78.29
2022-11-09T06:13:35.553Z,78.01
2022-11-09T06:16:03.795Z,77.21
2022-11-09T06:18:31.547Z,76.84
2022-11-09T06:20:59.886Z,77.31
2022-11-09T06:23:27.213Z,77.85
2022-11-09T06:25:58.540Z,77.00
2022-11-09T06:28:25.751Z,76.40
2022-11-09T06:30:53.144Z,77.24
2022-11-09T06:33:20.886Z,76.44
2022-11-09T06:35:52.146Z,77.52
2022-11-09T06:38:23.874Z,75.82
2022-11-09T06:40:51.393Z,79.58
2022-11-09T06:43:18.943Z,78.45
2022-11-09T06:45:46.631Z,80.12
2022-11-09T06:48:14.016Z,79.90
2022-11-09T06:50:41.279Z,78.18
2022-11-09T06:53:09.951Z,77.28
2022-11-09T06:55:37.291Z,78.57
2022-11-09T06:58:08.042Z,78.03
2022-11-09T07:00:35.738Z,77.93
2022-11-09T07:03:03.040Z,82.79
2022-11-09T07:05:30.351Z,78.34
2022-11-09T07:07:57.905Z,77.58
2022-11-09T07:10:25.216Z,78.29
2022-11-09T07:12:52.396Z,78.70
2022-11-09T07:15:19.855Z,78.28
2022-11-09T07:17:47.091Z,79.80
2022-11-09T07:20:14.911Z,78.31
2022-11-09T07:22:42.841Z,80.58
2022-11-09T07:25:11.008Z,78.24
2022-11-09T07:27:38.222Z,80.10
2022-11-09T07:30:05.920Z,78.64
2022-11-09T07:33:08.624Z,79.19
2022-11-09T07:35:21.711Z,81.12
2022-11-09T07:37:48.885Z,80.64
2022-11-09T07:40:16.088Z,80.45
2022-11-09T07:42:43.555Z,80.93
2022-11-09T07:45:10.900Z,80.07
2022-11-09T07:47:38.482Z,78.20
2022-11-09T07:50:06.187Z,78.49
2022-11-09T07:52:33.362Z,79.60
2022-11-09T07:55:00.616Z,83.25
2022-11-09T07:57:28.079Z,79.35
2022-11-09T07:59:55.269Z,79.56
2022-11-09T08:02:22.581Z,79.39
2022-11-09T08:04:50.049Z,76.82
2022-11-09T08:07:17.271Z,77.24
2022-11-09T08:09:44.491Z,78.62
2022-11-09T08:12:11.981Z,79.17
2022-11-09T08:14:39.214Z,78.15
2022-11-09T08:17:06.436Z,79.44
2022-11-09T08:19:34.248Z,77.40
2022-11-09T08:22:01.463Z,76.96
2022-11-09T08:24:28.649Z,76.76
2022-11-09T08:26:56.108Z,77.33
2022-11-09T08:29:23.265Z,79.39
2022-11-09T08:31:51.127Z,80.39
2022-11-09T08:34:18.771Z,78.69
2022-11-09T08:36:45.934Z,80.84
2022-11-09T08:39:13.135Z,80.01
2022-11-09T08:41:40.588Z,79.40
2022-11-09T08:44:07.818Z,78.52
2022-11-09T08:46:40.828Z,77.02
2022-11-09T08:49:08.855Z,78.71
2022-11-09T08:51:36.053Z,79.92
2022-11-09T08:54:03.299Z,78.90
2022-11-09T08:56:30.909Z,77.76
2022-11-09T08:58:58.079Z,77.68
2022-11-09T09:01:25.495Z,80.26
2022-11-09T09:03:52.988Z,81.42
2022-11-09T09:06:20.195Z,81.50
2022-11-09T09:08:47.382Z,80.29
2022-11-09T09:11:16.521Z,78.58
2022-11-09T09:13:43.948Z,79.46
2022-11-09T09:16:12.166Z,79.45
2022-11-09T09:18:39.709Z,80.86
2022-11-09T09:21:07.739Z,78.67
2022-11-09T09:23:34.903Z,78.61
2022-11-09T09:26:02.352Z,78.09
2022-11-09T09:28:29.608Z,78.52
2022-11-09T09:31:00.101Z,79.14
2022-11-09T09:33:27.628Z,77.89
2022-11-09T09:35:55.502Z,78.70
2022-11-09T09:38:22.995Z,77.62
2022-11-09T09:41:00.350Z,76.68
2022-11-09T09:43:47.832Z,81.21
2022-11-09T09:46:33.939Z,80.21
2022-11-09T09:49:06.256Z,78.97
2022-11-09T09:51:45.508Z,79.59
2022-11-09T09:54:15.521Z,79.17
2022-11-09T09:56:43.852Z,78.33
2022-11-09T09:59:20.356Z,79.29
2022-11-09T10:01:48.129Z,76.64
2022-11-09T10:04:22.497Z,81.62
2022-11-09T10:06:49.744Z,78.80
2022-11-09T10:09:23.182Z,80.39
2022-11-09T10:11:55.328Z,78.80
2022-11-09T10:14:25.914Z,77.32
2022-11-09T10:17:11.761Z,76.89
2022-11-09T10:19:51.581Z,81.67
2022-11-09T10:22:22.397Z,78.55
2022-11-09T10:25:18.568Z,78.91
2022-11-09T10:27:48.048Z,78.11
2022-11-09T10:30:19.429Z,78.57
2022-11-09T10:32:55.050Z,79.21
2022-11-09T10:35:24.905Z,81.50
2022-11-09T10:37:52.637Z,79.51
2022-11-09T10:40:22.360Z,78.56
2022-11-09T10:43:12.106Z,81.21
2022-11-09T10:46:04.880Z,78.89
2022-11-09T10:48:50.578Z,80.71
2022-11-09T10:51:40.447Z,81.20
2022-11-09T10:54:28.112Z,77.10
2022-11-09T10:57:17.365Z,81.48
2022-11-09T11:00:03.348Z,82.95
2022-11-09T11:02:50.392Z,77.67
2022-11-09T11:05:36.216Z,82.97
2022-11-09T11:08:23.167Z,79.03
2022-11-09T11:11:33.207Z,79.89
2022-11-09T11:14:23.411Z,77.57
2022-11-09T11:17:28.414Z,78.07
2022-11-09T11:20:26.370Z,78.63
2022-11-09T11:23:12.887Z,81.33
2022-11-09T11:26:01.409Z,75.74
2022-11-09T11:28:51.857Z,75.59
2022-11-09T11:31:37.470Z,77.89
2022-11-09T11:34:53.531Z,75.67
2022-11-09T11:37:40.251Z,75.05
2022-11-09T11:40:28.346Z,79.23
2022-11-09T11:43:40.209Z,77.92
2022-11-09T11:46:31.840Z,73.84
2022-11-09T11:49:50.045Z,75.21
2022-11-09T11:52:47.878Z,77.92
2022-11-09T11:55:46.384Z,75.83
2022-11-09T11:58:35.738Z,76.55
2022-11-09T12:01:21.511Z,75.86
2022-11-09T12:04:30.954Z,75.37
2022-11-09T12:07:24.650Z,78.63
2022-11-09T12:10:17.065Z,76.36
2022-11-09T12:13:22.491Z,76.11
2022-11-09T12:16:14.014Z,74.79
2022-11-09T12:18:59.739Z,76.58
2022-11-09T12:21:55.115Z,79.30
2022-11-09T12:24:55.965Z,79.93
2022-11-09T12:27:59.874Z,77.14
2022-11-09T12:31:04.003Z,78.25
2022-11-09T12:34:02.967Z,79.50
2022-11-09T12:36:56.112Z,77.51
2022-11-09T12:39:41.693Z,77.32
2022-11-09T12:42:35.041Z,74.43
2022-11-09T12:45:34.167Z,76.59
2022-11-09T12:48:22.951Z,75.01
2022-11-09T12:51:08.733Z,72.76
2022-11-09T12:53:54.331Z,73.88
2022-11-09T12:56:59.173Z,75.47
2022-11-09T12:59:50.212Z,75.49
2022-11-09T13:02:37.299Z,81.72
2022-11-09T13:05:37.611Z,78.26
2022-11-09T13:08:29.218Z,80.30
2022-11-09T13:11:17.806Z,75.37
2022-11-09T13:14:21.932Z,76.75
2022-11-09T13:17:25.788Z,76.96
2022-11-09T13:20:56.366Z,75.44
2022-11-09T13:26:49.004Z,75.22
2022-11-09T13:29:40.737Z,78.47
2022-11-09T13:32:29.711Z,78.56
2022-11-09T13:35:34.416Z,77.52
2022-11-09T13:38:23.358Z,75.02
2022-11-09T13:41:28.124Z,77.74
2022-11-09T13:44:17.907Z,75.64
2022-11-09T13:47:03.321Z,76.13
2022-11-09T13:49:49.821Z,77.33
2022-11-09T13:52:48.682Z,74.48
2022-11-09T13:55:38.694Z,75.91
2022-11-09T13:58:24.290Z,77.17
2022-11-09T14:01:29.894Z,75.54
2022-11-09T14:04:26.864Z,74.09
2022-11-09T14:07:29.207Z,71.59
2022-11-09T14:10:33.976Z,72.52
2022-11-09T14:13:24.527Z,71.54
2022-11-09T14:16:17.347Z,71.04
2022-11-09T14:19:09.137Z,71.48
2022-11-09T14:21:54.749Z,72.53
2022-11-09T14:24:40.334Z,71.00
2022-11-09T14:27:26.021Z,69.96
2022-11-09T14:30:21.561Z,72.77
2022-11-09T14:33:20.456Z,71.34
2022-11-09T14:36:06.492Z,72.94
2022-11-09T14:38:52.020Z,73.89
2022-11-09T14:41:37.871Z,70.51
2022-11-09T14:44:32.284Z,69.39
2022-11-09T14:47:33.486Z,69.87
2022-11-09T14:50:37.570Z,71.57
2022-11-09T14:53:26.320Z,69.40
2022-11-09T14:56:12.914Z,69.98
2022-11-09T14:58:58.451Z,69.95
2022-11-09T15:01:56.894Z,69.71
2022-11-09T15:04:54.738Z,69.92
2022-11-09T15:07:40.306Z,70.34
2022-11-09T15:10:29.630Z,70.39
2022-11-09T15:13:15.060Z,72.70
2022-11-09T15:16:01.023Z,71.73
2022-11-09T15:18:46.549Z,70.46
2022-11-09T15:21:34.289Z,71.16
2022-11-09T15:24:20.500Z,70.89
2022-11-09T15:27:26.232Z,71.22
2022-11-09T15:30:30.740Z,70.37
2022-11-09T15:33:19.371Z,72.10
2022-11-09T15:36:06.768Z,70.13
2022-11-09T15:38:57.235Z,69.50
2022-11-09T15:41:42.844Z,69.50
2022-11-09T15:44:28.345Z,67.84
2022-11-09T15:47:21.624Z,68.35
2022-11-09T15:50:11.258Z,68.73
2022-11-09T15:52:56.902Z,70.22
2022-11-09T15:55:43.043Z,70.71
2022-11-09T15:58:28.679Z,71.34
2022-11-09T16:01:14.431Z,72.22
2022-11-09T16:04:00.297Z,71.82
2022-11-09T16:06:47.001Z,69.59
2022-11-09T16:09:33.263Z,70.41
2022-11-09T16:12:19.276Z,68.67
2022-11-09T16:15:05.211Z,68.42
2022-11-09T16:17:51.264Z,69.34
2022-11-09T16:20:36.924Z,69.45
2022-11-09T16:23:22.652Z,66.26
2022-11-09T16:26:09.359Z,66.85
2022-11-09T16:28:55.151Z,66.65
2022-11-09T16:31:51.434Z,70.55
2022-11-09T16:34:38.276Z,71.15
2022-11-09T16:37:23.979Z,69.51
2022-11-09T16:40:11.270Z,68.32
2022-11-09T16:42:56.914Z,67.45
2022-11-09T16:45:46.641Z,68.92
2022-11-09T16:48:33.016Z,70.85
2022-11-09T16:51:19.279Z,67.87
2022-11-09T16:54:05.200Z,68.71
2022-11-09T16:56:52.262Z,67.81
2022-11-09T16:59:38.506Z,69.75
2022-11-09T17:02:24.792Z,68.01
2022-11-09T17:05:10.830Z,68.56
2022-11-09T17:07:57.171Z,69.49
2022-11-09T17:10:43.772Z,72.39
2022-11-09T17:13:29.728Z,70.67
2022-11-09T17:16:20.242Z,71.00
2022-11-09T17:19:06.361Z,68.16
2022-11-09T17:21:52.325Z,69.01
2022-11-09T17:24:38.283Z,65.25
2022-11-09T17:27:24.238Z,65.06
2022-11-09T17:30:11.771Z,65.53
2022-11-09T17:32:57.542Z,65.61
2022-11-09T17:35:43.071Z,65.45
2022-11-09T17:38:28.898Z,65.84
2022-11-09T17:41:18.781Z,65.88
2022-11-09T17:44:04.581Z,67.16
2022-11-09T17:46:50.651Z,65.78
2022-11-09T17:49:36.534Z,65.22
2022-11-09T17:52:22.071Z,64.94
2022-11-09T17:55:07.949Z,66.25
2022-11-09T17:57:53.983Z,68.08
2022-11-09T18:00:39.788Z,66.75
2022-11-09T18:03:25.899Z,67.07
2022-11-09T18:06:13.255Z,67.69
2022-11-09T18:09:34.457Z,68.94
2022-11-09T18:12:05.434Z,69.37
2022-11-09T18:14:51.575Z,69.22
2022-11-09T18:17:37.307Z,70.85
2022-11-09T18:20:23.518Z,72.68
2022-11-09T18:23:09.813Z,69.22
2022-11-09T18:25:58.668Z,67.94
2022-11-09T18:28:44.934Z,69.58
2022-11-09T18:31:30.734Z,66.64
2022-11-09T18:34:16.404Z,67.25
2022-11-09T18:37:02.017Z,68.77
2022-11-09T18:39:48.008Z,69.58
2022-11-09T18:42:33.260Z,69.49
2022-11-09T18:45:19.588Z,69.49
2022-11-09T18:48:05.659Z,67.86
2022-11-09T18:50:52.366Z,68.39
2022-11-09T18:53:39.488Z,68.14
2022-11-09T18:56:25.163Z,66.92
2022-11-09T18:59:12.381Z,68.77
2022-11-09T19:01:57.952Z,68.19
2022-11-09T19:04:43.838Z,67.99
2022-11-09T19:07:29.793Z,67.45
2022-11-09T19:10:16.279Z,67.57
2022-11-09T19:13:02.273Z,66.63
2022-11-09T19:15:48.425Z,65.76
2022-11-09T19:18:34.140Z,66.37
2022-11-09T19:21:22.969Z,67.85
2022-11-09T19:24:11.942Z,70.37
2022-11-09T19:26:57.446Z,70.83
2022-11-09T19:29:43.109Z,66.21
2022-11-09T19:32:28.909Z,67.51
2022-11-09T19:35:14.833Z,65.68
2022-11-09T19:38:06.065Z,66.78
2022-11-09T19:40:54.493Z,66.45
2022-11-09T19:43:40.741Z,68.63
2022-11-09T19:46:27.000Z,67.15
2022-11-09T19:49:12.860Z,65.66
2022-11-09T19:51:58.575Z,64.72
2022-11-09T19:54:44.169Z,64.95
2022-11-09T19:57:30.920Z,64.00
2022-11-09T20:00:17.596Z,63.66
2022-11-09T20:03:03.678Z,63.37
2022-11-09T20:05:53.353Z,63.38
2022-11-09T20:08:39.222Z,62.90
2022-11-09T20:11:43.982Z,62.64
2022-11-09T20:14:29.626Z,63.36
2022-11-09T20:17:15.466Z,63.02
2022-11-09T20:20:01.070Z,62.79
2022-11-09T20:22:46.750Z,64.17
2022-11-09T20:25:32.606Z,63.99
2022-11-09T20:28:18.416Z,64.32
2022-11-09T20:31:08.594Z,63.78
2022-11-09T20:33:55.665Z,63.69
2022-11-09T20:36:41.684Z,63.32
2022-11-09T20:39:27.324Z,63.20
2022-11-09T20:42:13.407Z,63.76
2022-11-09T20:44:59.000Z,63.59
2022-11-09T20:48:05.135Z,63.18
2022-11-09T20:50:50.438Z,63.61
2022-11-09T20:53:36.199Z,64.20
2022-11-09T20:56:22.289Z,62.89
2022-11-09T20:59:07.731Z,63.33
2022-11-09T21:01:53.202Z,63.73
2022-11-09T21:04:39.255Z,63.99
2022-11-09T21:07:24.989Z,64.98
2022-11-09T21:10:10.788Z,63.23
2022-11-09T21:12:56.466Z,63.47
2022-11-09T21:15:41.953Z,63.32
2022-11-09T21:18:27.638Z,62.33
2022-11-09T21:21:15.403Z,63.05
2022-11-09T21:24:19.870Z,63.49
2022-11-09T21:27:24.304Z,63.86
2022-11-09T21:30:10.460Z,62.66
2022-11-09T21:32:55.806Z,62.24
2022-11-09T21:35:41.902Z,62.09
2022-11-09T21:38:27.589Z,63.06
2022-11-09T21:41:31.814Z,62.96
2022-11-09T21:44:17.648Z,62.42
2022-11-09T21:47:03.507Z,62.81
2022-11-09T21:49:49.291Z,62.42
2022-11-09T21:52:35.247Z,62.18
2022-11-09T21:55:20.938Z,63.99
2022-11-09T21:58:06.661Z,62.52
2022-11-09T22:00:52.705Z,64.71
2022-11-09T22:03:38.483Z,63.00
2022-11-09T22:06:25.628Z,64.68
2022-11-09T22:09:15.182Z,63.41
2022-11-09T22:12:19.350Z,64.21
2022-11-09T22:15:24.103Z,63.07
2022-11-09T22:18:29.821Z,62.37
2022-11-09T22:21:15.342Z,62.98
2022-11-09T22:24:01.213Z,62.39
2022-11-09T22:26:46.798Z,61.96
2022-11-09T22:29:32.755Z,62.71
2022-11-09T22:32:18.432Z,62.25
2022-11-09T22:35:04.510Z,61.82
2022-11-09T22:37:50.166Z,61.54
2022-11-09T22:40:35.956Z,61.99
2022-11-09T22:43:21.934Z,63.42
2022-11-09T22:46:12.303Z,62.44
2022-11-09T22:48:57.820Z,62.06
2022-11-09T22:51:43.840Z,62.50
2022-11-09T22:54:29.514Z,62.48
2022-11-09T22:57:15.221Z,62.36
2022-11-09T23:00:01.180Z,62.48
2022-11-09T23:02:46.957Z,61.87
2022-11-09T23:05:32.872Z,62.07
2022-11-09T23:08:18.785Z,61.68
2022-11-09T23:11:06.601Z,61.59
2022-11-09T23:13:53.095Z,61.75
2022-11-09T23:16:38.910Z,61.84
2022-11-09T23:19:24.654Z,61.70
2022-11-09T23:22:10.518Z,61.37
2022-11-09T23:25:14.963Z,61.52
2022-11-09T23:28:00.817Z,61.55
2022-11-09T23:30:46.581Z,61.43
2022-11-09T23:33:32.607Z,62.43
2022-11-09T23:36:18.713Z,62.09
2022-11-09T23:39:04.302Z,62.38
2022-11-09T23:41:50.055Z,61.78
2022-11-09T23:44:35.867Z,61.98
2022-11-09T23:47:21.367Z,61.98
2022-11-09T23:50:07.317Z,61.83
2022-11-09T23:52:53.449Z,61.68
2022-11-09T23:55:39.647Z,61.67
2022-11-09T23:58:25.695Z,61.68
